Terminal Aerodrome Forecast
Issued by NWS

Home | Current Version | Previous Version | Text Only | Print | Product List | Glossary On
Versions: 1 2 3 4 5 6 7 8 9 10 11 12 13 14 15 16
257
FTUS43 KLSX 201124
TAFUIN
TAF
KUIN 201124Z 2012/2112 18010G16KT P6SM SCT250
     FM201500 23011KT P6SM BKN250
     FM201700 27008KT P6SM BKN250
     FM201900 33011KT P6SM BKN250
     FM202300 01012KT P6SM SCT150=

USA.gov is the U.S. government's official web portal to all federal, state and local government web resources and services.